createdAt,value
2022-08-26T00:02:27.928Z,100817.56
2022-08-26T00:07:30.001Z,100831.78
2022-08-26T00:12:35.919Z,100825.19
2022-08-26T00:17:37.941Z,100831.69
2022-08-26T00:22:41.969Z,100829.84
2022-08-26T00:27:44.058Z,100828.00
2022-08-26T00:32:46.354Z,100832.47
2022-08-26T00:37:47.875Z,100831.75
2022-08-26T00:42:49.989Z,100838.03
2022-08-26T00:48:01.031Z,100836.56
2022-08-26T00:53:21.516Z,100841.94
2022-08-26T00:58:31.881Z,100836.13
2022-08-26T01:03:34.993Z,100841.84
2022-08-26T01:08:36.665Z,100846.19
2022-08-26T01:13:39.020Z,100849.22
2022-08-26T01:18:43.390Z,100848.44
2022-08-26T01:23:49.536Z,100851.78
2022-08-26T01:28:55.018Z,100859.44
2022-08-26T01:34:05.543Z,100854.22
2022-08-26T01:39:07.819Z,100867.66
2022-08-26T01:44:14.207Z,100857.97
2022-08-26T01:49:17.258Z,100857.56
2022-08-26T01:54:20.582Z,100861.50
2022-08-26T01:59:25.324Z,100880.59
2022-08-26T02:04:33.185Z,100881.47
2022-08-26T02:09:41.216Z,100897.56
2022-08-26T02:14:50.079Z,100898.50
2022-08-26T02:19:53.293Z,100886.63
2022-08-26T02:24:58.925Z,100894.53
2022-08-26T02:30:06.917Z,100891.41
2022-08-26T02:35:11.378Z,100860.13
2022-08-26T02:40:16.623Z,100892.75
2022-08-26T02:45:23.262Z,100891.03
2022-08-26T02:50:26.746Z,100911.19
2022-08-26T02:55:28.181Z,100914.75
2022-08-26T03:00:31.312Z,100904.06
2022-08-26T03:05:33.553Z,100910.38
2022-08-26T03:10:35.577Z,100887.53
2022-08-26T03:15:37.071Z,100896.94
2022-08-26T03:20:39.939Z,100895.00
2022-08-26T03:25:42.531Z,100904.34
2022-08-26T03:30:45.757Z,100915.53
2022-08-26T03:35:48.021Z,100912.03
2022-08-26T03:40:52.458Z,100902.25
2022-08-26T03:45:54.126Z,100913.97
2022-08-26T03:50:56.179Z,100912.97
2022-08-26T03:55:58.976Z,100899.50
2022-08-26T04:01:00.601Z,100899.00
2022-08-26T04:06:02.028Z,100931.28
2022-08-26T04:11:04.214Z,100930.34
2022-08-26T04:16:06.166Z,100927.69
2022-08-26T04:21:08.505Z,100940.94
2022-08-26T04:26:10.084Z,100939.19
2022-08-26T04:31:16.153Z,100941.94
2022-08-26T04:36:20.166Z,100933.56
2022-08-26T04:41:22.348Z,100945.28
2022-08-26T04:46:25.059Z,100933.81
2022-08-26T04:51:29.107Z,100940.16
2022-08-26T04:56:34.648Z,100953.59
2022-08-26T05:01:39.685Z,100945.50
2022-08-26T05:06:41.268Z,100951.53
2022-08-26T05:11:42.825Z,100964.50
2022-08-26T05:16:44.431Z,100956.44
2022-08-26T05:21:49.906Z,100948.06
2022-08-26T05:26:51.431Z,100946.31
2022-08-26T05:31:53.368Z,100966.00
2022-08-26T05:36:57.667Z,100967.47
2022-08-26T05:41:59.436Z,100967.28
2022-08-26T05:47:01.295Z,100946.28
2022-08-26T05:52:03.337Z,100972.13
2022-08-26T05:57:04.869Z,100970.16
2022-08-26T06:02:07.256Z,100970.47
2022-08-26T06:07:11.646Z,100976.50
2022-08-26T06:12:15.730Z,100978.84
2022-08-26T06:17:19.899Z,100977.72
2022-08-26T06:22:39.667Z,100979.53
2022-08-26T06:27:41.094Z,100984.97
2022-08-26T06:32:42.497Z,100986.44
2022-08-26T06:37:43.891Z,100998.63
2022-08-26T06:42:45.320Z,101010.13
2022-08-26T06:47:47.414Z,101000.94
2022-08-26T06:52:52.552Z,101003.44
2022-08-26T06:57:57.062Z,100993.81
2022-08-26T07:02:58.522Z,100999.09
2022-08-26T07:08:00.065Z,100986.00
2022-08-26T07:13:02.592Z,100999.47
2022-08-26T07:18:04.383Z,101005.47
2022-08-26T07:23:07.712Z,100999.47
2022-08-26T07:28:13.187Z,101005.69
2022-08-26T07:33:14.890Z,101010.97
2022-08-26T07:38:16.390Z,101017.38
2022-08-26T07:43:18.513Z,101027.56
2022-08-26T07:48:23.041Z,101033.41
2022-08-26T07:53:24.498Z,101039.47
2022-08-26T07:58:26.032Z,101037.69
2022-08-26T08:03:27.507Z,101043.81
2022-08-26T08:08:29.205Z,101039.63
2022-08-26T08:13:30.844Z,101043.97
2022-08-26T08:18:33.276Z,101041.91
2022-08-26T08:23:35.390Z,101044.16
2022-08-26T08:28:38.659Z,101057.13
2022-08-26T08:33:40.142Z,101045.59
2022-08-26T08:38:41.589Z,101059.56
2022-08-26T08:43:47.312Z,101055.66
2022-08-26T08:48:56.806Z,101048.53
2022-08-26T08:54:00.464Z,101070.41
2022-08-26T08:59:16.160Z,101070.31
2022-08-26T09:04:29.909Z,101072.19
2022-08-26T09:09:51.217Z,101067.13
2022-08-26T09:14:57.714Z,101066.22
2022-08-26T09:20:12.133Z,101068.97
2022-08-26T09:25:15.191Z,101072.41
2022-08-26T09:30:36.346Z,101079.97
2022-08-26T09:35:46.909Z,101050.38
2022-08-26T09:40:59.178Z,101075.06
2022-08-26T09:46:18.479Z,101071.88
2022-08-26T09:51:19.863Z,101079.91
2022-08-26T09:56:27.820Z,101075.75
2022-08-26T10:01:32.111Z,101081.81
2022-08-26T10:06:40.961Z,101061.94
2022-08-26T10:12:06.532Z,101059.47
2022-08-26T10:17:20.613Z,101067.25
2022-08-26T10:22:27.935Z,101061.66
2022-08-26T10:27:48.358Z,101063.28
2022-08-26T10:33:00.659Z,101062.28
2022-08-26T10:38:09.303Z,101065.94
2022-08-26T10:43:25.813Z,101063.28
2022-08-26T10:48:45.466Z,101054.91
2022-08-26T10:54:04.260Z,101063.00
2022-08-26T10:59:26.702Z,101071.66
2022-08-26T11:04:44.426Z,101058.28
2022-08-26T11:09:48.998Z,101056.03
2022-08-26T11:14:58.882Z,101065.00
2022-08-26T11:20:08.953Z,101032.88
2022-08-26T11:25:13.104Z,101064.69
2022-08-26T11:30:15.739Z,101052.38
2022-08-26T11:35:20.412Z,101059.38
2022-08-26T11:40:26.244Z,101057.91
2022-08-26T11:45:32.724Z,101058.75
2022-08-26T11:50:34.188Z,101061.56
2022-08-26T11:55:43.284Z,101052.09
2022-08-26T12:01:09.851Z,101051.06
2022-08-26T12:06:20.362Z,101049.75
2022-08-26T12:11:26.068Z,101048.56
2022-08-26T12:16:30.273Z,101059.72
2022-08-26T12:21:34.616Z,101039.59
2022-08-26T12:26:37.010Z,101053.72
2022-08-26T12:31:42.084Z,101029.47
2022-08-26T12:36:50.229Z,101056.47
2022-08-26T12:41:55.362Z,101021.84
2022-08-26T12:47:02.957Z,101060.75
2022-08-26T12:52:06.766Z,101060.22
2022-08-26T12:57:13.177Z,101066.69
2022-08-26T13:02:35.304Z,101066.75
2022-08-26T13:07:38.077Z,101058.38
2022-08-26T13:12:41.015Z,101054.72
2022-08-26T13:17:42.478Z,101038.63
2022-08-26T13:22:43.878Z,101035.69
2022-08-26T13:27:45.292Z,101037.22
2022-08-26T13:32:46.751Z,101044.06
2022-08-26T13:37:48.186Z,101042.09
2022-08-26T13:42:50.197Z,101041.94
2022-08-26T13:47:51.641Z,101041.09
2022-08-26T13:52:53.496Z,101028.19
2022-08-26T13:57:56.497Z,101047.38
2022-08-26T14:02:58.394Z,101033.63
2022-08-26T14:08:00.080Z,101045.47
2022-08-26T14:13:01.652Z,101009.63
2022-08-26T14:18:05.552Z,101036.75
2022-08-26T14:23:14.186Z,101029.50
2022-08-26T14:28:16.140Z,101040.97
2022-08-26T14:33:19.977Z,101025.66
2022-08-26T14:38:21.402Z,101033.06
2022-08-26T14:43:22.809Z,101046.25
2022-08-26T14:48:24.200Z,101035.22
2022-08-26T14:53:44.115Z,101046.06
2022-08-26T14:58:45.845Z,101036.22
2022-08-26T15:03:47.340Z,101031.78
2022-08-26T15:08:48.827Z,101026.13
2022-08-26T15:13:50.255Z,101042.81
2022-08-26T15:18:51.723Z,101024.47
2022-08-26T15:23:54.260Z,101013.44
2022-08-26T15:28:56.137Z,101022.44
2022-08-26T15:33:59.642Z,101016.16
2022-08-26T15:39:01.615Z,101015.84
2022-08-26T15:44:04.723Z,101019.13
2022-08-26T15:49:06.957Z,101018.34
2022-08-26T15:54:10.340Z,101010.31
2022-08-26T15:59:12.136Z,101016.03
2022-08-26T16:04:14.057Z,101016.25
2022-08-26T16:09:16.115Z,101009.63
2022-08-26T16:14:17.597Z,101002.56
2022-08-26T16:19:19.477Z,101025.59
2022-08-26T16:24:25.934Z,101007.28
2022-08-26T16:29:28.806Z,101030.03
2022-08-26T16:34:30.255Z,101026.75
2022-08-26T16:39:32.487Z,101025.47
2022-08-26T16:44:44.393Z,101023.44
2022-08-26T16:49:46.988Z,101027.56
2022-08-26T16:54:48.410Z,101034.13
2022-08-26T16:59:50.049Z,101030.63
2022-08-26T17:04:51.483Z,101048.19
2022-08-26T17:09:52.854Z,101048.94
2022-08-26T17:14:55.484Z,101052.31
2022-08-26T17:19:57.326Z,101061.75
2022-08-26T17:24:58.785Z,101067.38
2022-08-26T17:30:00.215Z,101067.59
2022-08-26T17:35:02.214Z,101071.41
2022-08-26T17:40:07.078Z,101074.63
2022-08-26T17:45:10.390Z,101070.59
2022-08-26T17:50:14.948Z,101077.09
2022-08-26T17:55:17.744Z,101066.31
2022-08-26T18:00:22.929Z,101082.53
2022-08-26T18:05:24.732Z,101082.78
2022-08-26T18:10:26.472Z,101074.75
2022-08-26T18:15:27.907Z,101063.34
2022-08-26T18:20:29.334Z,101037.91
2022-08-26T18:25:31.099Z,101077.53
2022-08-26T18:30:32.645Z,101082.38
2022-08-26T18:35:41.677Z,101085.63
2022-08-26T18:40:45.356Z,101092.03
2022-08-26T18:45:47.238Z,101081.22
2022-08-26T18:50:49.409Z,101090.78
2022-08-26T18:55:51.580Z,101089.50
2022-08-26T19:00:53.065Z,101097.53
2022-08-26T19:05:55.277Z,101099.19
2022-08-26T19:10:57.030Z,101097.63
2022-08-26T19:15:58.431Z,101107.84
2022-08-26T19:20:59.900Z,101104.75
2022-08-26T19:26:03.995Z,101113.50
2022-08-26T19:31:05.509Z,101110.78
2022-08-26T19:36:11.451Z,101118.50
2022-08-26T19:41:19.867Z,101120.16
2022-08-26T19:46:23.171Z,101105.59
2022-08-26T19:51:30.433Z,101110.34
2022-08-26T19:56:31.914Z,101106.88
2022-08-26T20:01:33.416Z,101109.00
2022-08-26T20:06:35.111Z,101122.16
2022-08-26T20:11:36.914Z,101106.34
2022-08-26T20:16:38.418Z,101114.09
2022-08-26T20:21:41.361Z,101125.81
2022-08-26T20:26:45.194Z,101130.88
2022-08-26T20:31:47.975Z,101138.63
2022-08-26T20:36:50.155Z,101131.25
2022-08-26T20:41:51.602Z,101144.09
2022-08-26T20:46:53.104Z,101137.19
2022-08-26T20:51:54.538Z,101148.69
2022-08-26T20:56:57.641Z,101146.78
2022-08-26T21:01:59.124Z,101156.03
2022-08-26T21:07:00.577Z,101153.34
2022-08-26T21:12:02.318Z,101156.22
2022-08-26T21:17:04.095Z,101156.81
2022-08-26T21:22:05.703Z,101149.13
2022-08-26T21:27:07.240Z,101166.16
2022-08-26T21:32:09.407Z,101165.22
2022-08-26T21:37:16.546Z,101166.22
2022-08-26T21:42:18.509Z,101164.41
2022-08-26T21:47:21.923Z,101164.38
2022-08-26T21:52:23.340Z,101165.13
2022-08-26T21:57:25.134Z,101164.00
2022-08-26T22:02:26.851Z,101176.91
2022-08-26T22:07:28.358Z,101171.22
2022-08-26T22:12:29.825Z,101171.97
2022-08-26T22:17:31.359Z,101169.84
2022-08-26T22:22:33.001Z,101162.47
2022-08-26T22:27:34.507Z,101171.81
2022-08-26T22:32:43.617Z,101173.34
2022-08-26T22:37:46.611Z,101160.75
2022-08-26T22:42:55.617Z,101174.13
2022-08-26T22:48:04.538Z,101145.34
2022-08-26T22:53:05.943Z,101165.09
2022-08-26T22:58:07.880Z,101174.50
2022-08-26T23:03:09.634Z,101168.22
2022-08-26T23:08:12.118Z,101160.28
2022-08-26T23:13:15.146Z,101174.19
2022-08-26T23:18:16.626Z,101174.50
2022-08-26T23:23:18.244Z,101179.72
2022-08-26T23:28:20.682Z,101179.63
2022-08-26T23:33:22.120Z,101172.91
2022-08-26T23:38:23.507Z,101179.94
2022-08-26T23:43:25.086Z,101157.44
2022-08-26T23:48:26.566Z,101167.56
2022-08-26T23:53:27.978Z,101156.56
2022-08-26T23:58:29.499Z,101162.50
